sensor_id;sensor_type;location;lat;lon;timestamp;pressure;altitude;pressure_sealevel;temperature;humidity
46045;BME280;31781;54.094;13.428;2024-01-15T00:00:39;98925.75;;;2.63;80.76
46045;BME280;31781;54.094;13.428;2024-01-15T00:06:41;98922.03;;;2.64;81.40
46045;BME280;31781;54.094;13.428;2024-01-15T00:12:44;98925.75;;;2.63;81.22
46045;BME280;31781;54.094;13.428;2024-01-15T00:18:46;98922.44;;;2.61;80.25
46045;BME280;31781;54.094;13.428;2024-01-15T00:24:48;98906.34;;;2.54;80.58
46045;BME280;31781;54.094;13.428;2024-01-15T00:30:51;98883.59;;;2.50;80.13
46045;BME280;31781;54.094;13.428;2024-01-15T00:36:53;98875.97;;;2.47;80.20
46045;BME280;31781;54.094;13.428;2024-01-15T00:42:55;98874.72;;;2.43;79.10
46045;BME280;31781;54.094;13.428;2024-01-15T00:48:58;98863.97;;;2.36;79.16
46045;BME280;31781;54.094;13.428;2024-01-15T00:55:00;98840.41;;;2.32;78.78
46045;BME280;31781;54.094;13.428;2024-01-15T01:01:01;98835.84;;;2.26;78.51
46045;BME280;31781;54.094;13.428;2024-01-15T01:07:04;98826.75;;;2.20;78.68
46045;BME280;31781;54.094;13.428;2024-01-15T01:13:06;98810.03;;;2.18;78.33
46045;BME280;31781;54.094;13.428;2024-01-15T01:19:08;98798.28;;;2.19;78.39
46045;BME280;31781;54.094;13.428;2024-01-15T01:25:11;98796.59;;;2.18;79.14
46045;BME280;31781;54.094;13.428;2024-01-15T01:31:13;98788.56;;;2.18;78.19
46045;BME280;31781;54.094;13.428;2024-01-15T01:37:15;98770.19;;;2.15;78.45
46045;BME280;31781;54.094;13.428;2024-01-15T01:43:18;98760.09;;;2.17;78.39
46045;BME280;31781;54.094;13.428;2024-01-15T01:49:20;98736.78;;;2.18;78.99
46045;BME280;31781;54.094;13.428;2024-01-15T01:55:24;98739.25;;;2.19;78.44
46045;BME280;31781;54.094;13.428;2024-01-15T02:01:29;98713.06;;;2.21;78.48
46045;BME280;31781;54.094;13.428;2024-01-15T02:07:34;98697.75;;;2.22;78.57
46045;BME280;31781;54.094;13.428;2024-01-15T02:13:36;98681.66;;;2.22;78.01
46045;BME280;31781;54.094;13.428;2024-01-15T02:19:38;98664.34;;;2.24;78.06
46045;BME280;31781;54.094;13.428;2024-01-15T02:25:43;98644.53;;;2.25;78.50
46045;BME280;31781;54.094;13.428;2024-01-15T02:31:45;98630.91;;;2.27;77.84
46045;BME280;31781;54.094;13.428;2024-01-15T02:37:47;98626.38;;;2.27;78.11
46045;BME280;31781;54.094;13.428;2024-01-15T02:43:51;98616.44;;;2.34;77.98
46045;BME280;31781;54.094;13.428;2024-01-15T02:49:52;98605.53;;;2.36;78.17
46045;BME280;31781;54.094;13.428;2024-01-15T02:55:54;98613.16;;;2.32;78.71
46045;BME280;31781;54.094;13.428;2024-01-15T03:01:57;98598.28;;;2.30;79.04
46045;BME280;31781;54.094;13.428;2024-01-15T03:07:59;98596.84;;;2.27;79.79
46045;BME280;31781;54.094;13.428;2024-01-15T03:14:00;98582.59;;;2.27;79.57
46045;BME280;31781;54.094;13.428;2024-01-15T03:20:04;98572.28;;;2.24;79.72
46045;BME280;31781;54.094;13.428;2024-01-15T03:26:06;98554.94;;;2.26;79.54
46045;BME280;31781;54.094;13.428;2024-01-15T03:32:08;98558.47;;;2.27;80.23
46045;BME280;31781;54.094;13.428;2024-01-15T03:38:11;98562.81;;;2.28;80.48
46045;BME280;31781;54.094;13.428;2024-01-15T03:44:12;98553.91;;;2.27;80.64
46045;BME280;31781;54.094;13.428;2024-01-15T03:50:14;98560.13;;;2.28;80.10
46045;BME280;31781;54.094;13.428;2024-01-15T03:56:17;98561.78;;;2.29;79.62
46045;BME280;31781;54.094;13.428;2024-01-15T04:02:19;98544.41;;;2.31;79.21
46045;BME280;31781;54.094;13.428;2024-01-15T04:08:20;98529.56;;;2.35;78.59
46045;BME280;31781;54.094;13.428;2024-01-15T04:14:23;98551.84;;;2.36;78.83
46045;BME280;31781;54.094;13.428;2024-01-15T04:20:25;98565.06;;;2.31;78.13
46045;BME280;31781;54.094;13.428;2024-01-15T04:26:26;98579.31;;;2.25;76.94
46045;BME280;31781;54.094;13.428;2024-01-15T04:32:29;98564.84;;;2.26;75.97
46045;BME280;31781;54.094;13.428;2024-01-15T04:38:31;98569.19;;;2.27;77.03
46045;BME280;31781;54.094;13.428;2024-01-15T04:44:32;98545.66;;;2.22;74.75
46045;BME280;31781;54.094;13.428;2024-01-15T04:50:35;98547.13;;;2.18;75.01
46045;BME280;31781;54.094;13.428;2024-01-15T04:56:37;98549.38;;;2.15;75.17
46045;BME280;31781;54.094;13.428;2024-01-15T05:02:39;98553.72;;;2.16;75.49
46045;BME280;31781;54.094;13.428;2024-01-15T05:08:42;98552.28;;;2.20;76.45
46045;BME280;31781;54.094;13.428;2024-01-15T05:14:43;98550.19;;;2.22;76.75
46045;BME280;31781;54.094;13.428;2024-01-15T05:20:45;98538.03;;;2.19;76.71
46045;BME280;31781;54.094;13.428;2024-01-15T05:26:48;98546.91;;;2.20;76.93
46045;BME280;31781;54.094;13.428;2024-01-15T05:32:50;98543.41;;;2.19;76.87
46045;BME280;31781;54.094;13.428;2024-01-15T05:38:51;98550.44;;;2.20;76.35
46045;BME280;31781;54.094;13.428;2024-01-15T05:44:54;98563.00;;;2.20;76.18
46045;BME280;31781;54.094;13.428;2024-01-15T05:50:56;98581.19;;;2.18;76.02
46045;BME280;31781;54.094;13.428;2024-01-15T05:56:57;98587.59;;;2.17;74.97
46045;BME280;31781;54.094;13.428;2024-01-15T06:03:01;98577.03;;;2.15;73.60
46045;BME280;31781;54.094;13.428;2024-01-15T06:09:03;98576.63;;;2.18;71.76
46045;BME280;31781;54.094;13.428;2024-01-15T06:15:05;98587.75;;;2.22;71.78
46045;BME280;31781;54.094;13.428;2024-01-15T06:21:08;98596.44;;;2.24;72.26
46045;BME280;31781;54.094;13.428;2024-01-15T06:27:10;98614.19;;;2.18;73.64
46045;BME280;31781;54.094;13.428;2024-01-15T06:33:11;98617.50;;;2.14;74.57
46045;BME280;31781;54.094;13.428;2024-01-15T06:39:15;98602.88;;;2.03;76.12
46045;BME280;31781;54.094;13.428;2024-01-15T06:45:16;98620.00;;;1.95;76.85
46045;BME280;31781;54.094;13.428;2024-01-15T06:51:18;98628.00;;;1.89;76.28
46045;BME280;31781;54.094;13.428;2024-01-15T06:57:21;98617.50;;;1.87;75.55
46045;BME280;31781;54.094;13.428;2024-01-15T07:03:23;98631.75;;;1.88;74.70
46045;BME280;31781;54.094;13.428;2024-01-15T07:09:25;98627.19;;;1.88;74.20
46045;BME280;31781;54.094;13.428;2024-01-15T07:15:28;98629.66;;;1.90;74.64
46045;BME280;31781;54.094;13.428;2024-01-15T07:21:29;98660.41;;;1.87;73.68
46045;BME280;31781;54.094;13.428;2024-01-15T07:27:31;98674.00;;;1.86;73.82
46045;BME280;31781;54.094;13.428;2024-01-15T07:33:35;98679.16;;;1.81;71.38
46045;BME280;31781;54.094;13.428;2024-01-15T07:39:37;98693.78;;;1.78;69.64
46045;BME280;31781;54.094;13.428;2024-01-15T07:45:38;98706.56;;;1.76;68.65
46045;BME280;31781;54.094;13.428;2024-01-15T07:51:44;98704.50;;;1.72;67.25
46045;BME280;31781;54.094;13.428;2024-01-15T07:57:45;98713.38;;;1.72;67.57
46045;BME280;31781;54.094;13.428;2024-01-15T08:03:59;98703.06;;;1.69;65.51
46045;BME280;31781;54.094;13.428;2024-01-15T08:10:02;98722.66;;;1.70;65.30
46045;BME280;31781;54.094;13.428;2024-01-15T08:16:04;98731.47;;;1.64;63.10
46045;BME280;31781;54.094;13.428;2024-01-15T08:22:06;98732.53;;;1.69;63.94
46045;BME280;31781;54.094;13.428;2024-01-15T08:28:09;98736.06;;;1.70;63.60
46045;BME280;31781;54.094;13.428;2024-01-15T08:34:10;98754.41;;;1.66;64.41
46045;BME280;31781;54.094;13.428;2024-01-15T08:40:12;98766.31;;;1.64;63.83
46045;BME280;31781;54.094;13.428;2024-01-15T08:46:15;98764.66;;;1.63;63.47
46045;BME280;31781;54.094;13.428;2024-01-15T08:52:17;98779.72;;;1.57;62.60
46045;BME280;31781;54.094;13.428;2024-01-15T08:58:19;98777.03;;;1.57;63.36
46045;BME280;31781;54.094;13.428;2024-01-15T09:04:22;98790.63;;;1.56;64.18
46045;BME280;31781;54.094;13.428;2024-01-15T09:10:23;98794.13;;;1.56;64.51
46045;BME280;31781;54.094;13.428;2024-01-15T09:16:25;98794.53;;;1.53;64.89
46045;BME280;31781;54.094;13.428;2024-01-15T09:22:31;98806.25;;;1.52;65.02
46045;BME280;31781;54.094;13.428;2024-01-15T09:28:33;98813.69;;;1.50;64.82
46045;BME280;31781;54.094;13.428;2024-01-15T09:34:36;98834.47;;;1.48;65.04
46045;BME280;31781;54.094;13.428;2024-01-15T09:40:43;98829.75;;;1.43;63.81
46045;BME280;31781;54.094;13.428;2024-01-15T09:46:45;98834.66;;;1.40;64.08
46045;BME280;31781;54.094;13.428;2024-01-15T09:52:47;98853.59;;;1.38;64.11
46045;BME280;31781;54.094;13.428;2024-01-15T09:58:51;98855.00;;;1.34;64.08
46045;BME280;31781;54.094;13.428;2024-01-15T10:04:53;98854.19;;;1.34;64.70
46045;BME280;31781;54.094;13.428;2024-01-15T10:10:54;98871.09;;;1.34;65.39
46045;BME280;31781;54.094;13.428;2024-01-15T10:16:57;98884.84;;;1.25;63.55
46045;BME280;31781;54.094;13.428;2024-01-15T10:22:59;98892.66;;;1.26;63.44
46045;BME280;31781;54.094;13.428;2024-01-15T10:29:01;98895.13;;;1.21;63.04
46045;BME280;31781;54.094;13.428;2024-01-15T10:35:04;98898.81;;;1.20;62.96
46045;BME280;31781;54.094;13.428;2024-01-15T10:41:08;98902.28;;;1.14;62.35
46045;BME280;31781;54.094;13.428;2024-01-15T10:47:11;98889.66;;;1.08;61.96
46045;BME280;31781;54.094;13.428;2024-01-15T10:53:15;98908.78;;;1.05;62.85
46045;BME280;31781;54.094;13.428;2024-01-15T10:59:20;98920.72;;;1.03;63.44
46045;BME280;31781;54.094;13.428;2024-01-15T11:05:21;98920.28;;;0.99;63.75
46045;BME280;31781;54.094;13.428;2024-01-15T11:11:25;98943.47;;;0.92;63.85
46045;BME280;31781;54.094;13.428;2024-01-15T11:17:59;98966.94;;;0.90;63.61
46045;BME280;31781;54.094;13.428;2024-01-15T11:24:02;98968.88;;;0.81;62.29
46045;BME280;31781;54.094;13.428;2024-01-15T11:30:08;98979.59;;;0.81;62.48
46045;BME280;31781;54.094;13.428;2024-01-15T11:36:10;98986.16;;;0.79;61.03
46045;BME280;31781;54.094;13.428;2024-01-15T11:42:11;98985.16;;;0.80;61.17
46045;BME280;31781;54.094;13.428;2024-01-15T11:48:16;98991.34;;;0.80;61.89
46045;BME280;31781;54.094;13.428;2024-01-15T11:54:19;98980.63;;;0.80;61.82
46045;BME280;31781;54.094;13.428;2024-01-15T12:00:23;98992.34;;;0.79;61.63
46045;BME280;31781;54.094;13.428;2024-01-15T12:06:27;98989.50;;;0.81;62.10
46045;BME280;31781;54.094;13.428;2024-01-15T12:12:39;98995.66;;;0.81;62.34
46045;BME280;31781;54.094;13.428;2024-01-15T12:18:42;99002.06;;;0.80;62.00
46045;BME280;31781;54.094;13.428;2024-01-15T12:24:46;99020.13;;;0.78;61.14
46045;BME280;31781;54.094;13.428;2024-01-15T12:30:47;99030.00;;;0.78;61.13
46045;BME280;31781;54.094;13.428;2024-01-15T12:36:49;99048.56;;;0.79;60.62
46045;BME280;31781;54.094;13.428;2024-01-15T12:42:53;99050.88;;;0.82;62.17
46045;BME280;31781;54.094;13.428;2024-01-15T12:48:55;99062.97;;;0.78;60.91
46045;BME280;31781;54.094;13.428;2024-01-15T12:54:57;99082.53;;;0.79;60.54
46045;BME280;31781;54.094;13.428;2024-01-15T13:01:00;99076.94;;;0.74;60.81
46045;BME280;31781;54.094;13.428;2024-01-15T13:07:02;99090.78;;;0.77;60.88
46045;BME280;31781;54.094;13.428;2024-01-15T13:13:05;99101.19;;;0.72;61.05
46045;BME280;31781;54.094;13.428;2024-01-15T13:19:09;99103.31;;;0.77;61.42
46045;BME280;31781;54.094;13.428;2024-01-15T13:25:11;99128.41;;;0.76;61.23
46045;BME280;31781;54.094;13.428;2024-01-15T13:31:12;99151.69;;;0.75;61.50
46045;BME280;31781;54.094;13.428;2024-01-15T13:37:15;99143.84;;;0.74;62.05
46045;BME280;31781;54.094;13.428;2024-01-15T13:43:17;99166.28;;;0.73;61.34
46045;BME280;31781;54.094;13.428;2024-01-15T13:49:18;99179.44;;;0.74;62.09
46045;BME280;31781;54.094;13.428;2024-01-15T13:55:22;99182.34;;;0.73;61.97
46045;BME280;31781;54.094;13.428;2024-01-15T14:01:23;99193.22;;;0.71;61.97
46045;BME280;31781;54.094;13.428;2024-01-15T14:07:25;99206.34;;;0.66;60.05
46045;BME280;31781;54.094;13.428;2024-01-15T14:13:28;99210.00;;;0.65;60.79
46045;BME280;31781;54.094;13.428;2024-01-15T14:19:30;99237.31;;;0.61;60.27
46045;BME280;31781;54.094;13.428;2024-01-15T14:25:32;99244.88;;;0.57;60.66
46045;BME280;31781;54.094;13.428;2024-01-15T14:31:35;99257.44;;;0.57;59.75
46045;BME280;31781;54.094;13.428;2024-01-15T14:37:37;99274.31;;;0.57;60.70
46045;BME280;31781;54.094;13.428;2024-01-15T14:43:38;99293.22;;;0.56;60.64
46045;BME280;31781;54.094;13.428;2024-01-15T14:49:41;99308.63;;;0.54;61.15
46045;BME280;31781;54.094;13.428;2024-01-15T14:55:43;99317.50;;;0.54;61.62
46045;BME280;31781;54.094;13.428;2024-01-15T15:01:45;99325.69;;;0.53;61.85
46045;BME280;31781;54.094;13.428;2024-01-15T15:07:48;99336.41;;;0.53;62.72
46045;BME280;31781;54.094;13.428;2024-01-15T15:13:50;99350.81;;;0.52;62.15
46045;BME280;31781;54.094;13.428;2024-01-15T15:19:52;99373.03;;;0.52;62.14
46045;BME280;31781;54.094;13.428;2024-01-15T15:25:55;99396.63;;;0.48;62.30
46045;BME280;31781;54.094;13.428;2024-01-15T15:31:56;99397.00;;;0.45;62.67
46045;BME280;31781;54.094;13.428;2024-01-15T15:37:58;99413.88;;;0.46;62.08
46045;BME280;31781;54.094;13.428;2024-01-15T15:44:01;99435.97;;;0.48;63.72
46045;BME280;31781;54.094;13.428;2024-01-15T15:50:04;99439.66;;;0.47;63.32
46045;BME280;31781;54.094;13.428;2024-01-15T15:56:06;99461.06;;;0.47;63.93
46045;BME280;31781;54.094;13.428;2024-01-15T16:02:09;99470.56;;;0.49;64.23
46045;BME280;31781;54.094;13.428;2024-01-15T16:08:10;99480.78;;;0.46;63.47
46045;BME280;31781;54.094;13.428;2024-01-15T16:14:12;99487.63;;;0.48;63.16
46045;BME280;31781;54.094;13.428;2024-01-15T16:20:15;99505.88;;;0.45;63.00
46045;BME280;31781;54.094;13.428;2024-01-15T16:26:37;99510.56;;;0.43;62.92
46045;BME280;31781;54.094;13.428;2024-01-15T16:32:39;99522.09;;;0.43;63.28
46045;BME280;31781;54.094;13.428;2024-01-15T16:38:42;99526.63;;;0.43;63.27
46045;BME280;31781;54.094;13.428;2024-01-15T16:44:44;99535.50;;;0.43;63.39
46045;BME280;31781;54.094;13.428;2024-01-15T16:50:46;99532.13;;;0.41;63.21
46045;BME280;31781;54.094;13.428;2024-01-15T16:56:49;99551.69;;;0.42;63.06
46045;BME280;31781;54.094;13.428;2024-01-15T17:02:51;99550.88;;;0.41;63.73
46045;BME280;31781;54.094;13.428;2024-01-15T17:08:53;99572.09;;;0.43;64.88
46045;BME280;31781;54.094;13.428;2024-01-15T17:14:55;99576.78;;;0.41;64.36
46045;BME280;31781;54.094;13.428;2024-01-15T17:20:57;99588.69;;;0.38;63.13
46045;BME280;31781;54.094;13.428;2024-01-15T17:26:59;99605.06;;;0.35;63.01
46045;BME280;31781;54.094;13.428;2024-01-15T17:33:02;99615.28;;;0.32;63.33
46045;BME280;31781;54.094;13.428;2024-01-15T17:39:04;99635.50;;;0.26;61.98
46045;BME280;31781;54.094;13.428;2024-01-15T17:45:06;99655.41;;;0.24;62.45
46045;BME280;31781;54.094;13.428;2024-01-15T17:51:09;99659.09;;;0.23;63.61
46045;BME280;31781;54.094;13.428;2024-01-15T17:57:11;99670.13;;;0.20;62.56
46045;BME280;31781;54.094;13.428;2024-01-15T18:03:12;99676.97;;;0.22;63.46
46045;BME280;31781;54.094;13.428;2024-01-15T18:09:16;99700.25;;;0.22;64.26
46045;BME280;31781;54.094;13.428;2024-01-15T18:15:17;99693.38;;;0.19;63.56
46045;BME280;31781;54.094;13.428;2024-01-15T18:21:19;99697.38;;;0.15;62.64
46045;BME280;31781;54.094;13.428;2024-01-15T18:27:23;99706.44;;;0.14;62.81
46045;BME280;31781;54.094;13.428;2024-01-15T18:33:24;99710.44;;;0.10;62.79
46045;BME280;31781;54.094;13.428;2024-01-15T18:39:26;99708.09;;;0.07;62.39
46045;BME280;31781;54.094;13.428;2024-01-15T18:45:29;99732.19;;;0.07;63.39
46045;BME280;31781;54.094;13.428;2024-01-15T18:51:30;99740.34;;;0.06;62.16
46045;BME280;31781;54.094;13.428;2024-01-15T18:57:32;99754.56;;;0.06;62.71
46045;BME280;31781;54.094;13.428;2024-01-15T19:03:35;99748.53;;;0.04;61.78
46045;BME280;31781;54.094;13.428;2024-01-15T19:09:37;99761.09;;;0.04;62.36
46045;BME280;31781;54.094;13.428;2024-01-15T19:15:38;99765.41;;;0.05;63.19
46045;BME280;31781;54.094;13.428;2024-01-15T19:21:41;99767.44;;;0.03;62.42
46045;BME280;31781;54.094;13.428;2024-01-15T19:27:43;99769.91;;;0.04;62.86
46045;BME280;31781;54.094;13.428;2024-01-15T19:33:45;99784.31;;;0.03;62.23
46045;BME280;31781;54.094;13.428;2024-01-15T19:39:48;99798.03;;;0.00;61.13
46045;BME280;31781;54.094;13.428;2024-01-15T19:45:50;99811.53;;;-0.02;61.70
46045;BME280;31781;54.094;13.428;2024-01-15T19:51:51;99823.41;;;-0.04;61.25
46045;BME280;31781;54.094;13.428;2024-01-15T19:57:54;99850.31;;;-0.06;61.94
46045;BME280;31781;54.094;13.428;2024-01-15T20:03:56;99847.63;;;-0.06;62.44
46045;BME280;31781;54.094;13.428;2024-01-15T20:09:57;99871.69;;;-0.06;61.88
46045;BME280;31781;54.094;13.428;2024-01-15T20:16:05;99870.00;;;-0.07;62.94
46045;BME280;31781;54.094;13.428;2024-01-15T20:22:06;99885.22;;;-0.07;62.91
46045;BME280;31781;54.094;13.428;2024-01-15T20:28:08;99895.75;;;-0.06;63.15
46045;BME280;31781;54.094;13.428;2024-01-15T20:34:11;99897.44;;;-0.05;63.74
46045;BME280;31781;54.094;13.428;2024-01-15T20:40:14;99903.44;;;-0.03;63.88
46045;BME280;31781;54.094;13.428;2024-01-15T20:46:15;99908.66;;;-0.01;64.32
46045;BME280;31781;54.094;13.428;2024-01-15T20:52:18;99926.19;;;0.02;64.60
46045;BME280;31781;54.094;13.428;2024-01-15T20:58:24;99929.06;;;0.00;64.72
46045;BME280;31781;54.094;13.428;2024-01-15T21:04:26;99939.41;;;0.03;64.44
46045;BME280;31781;54.094;13.428;2024-01-15T21:10:29;99936.56;;;0.05;65.10
46045;BME280;31781;54.094;13.428;2024-01-15T21:16:30;99938.41;;;0.04;64.66
46045;BME280;31781;54.094;13.428;2024-01-15T21:22:32;99942.59;;;0.07;64.62
46045;BME280;31781;54.094;13.428;2024-01-15T21:28:35;99948.63;;;0.09;64.95
46045;BME280;31781;54.094;13.428;2024-01-15T21:34:36;99959.31;;;0.09;65.15
46045;BME280;31781;54.094;13.428;2024-01-15T21:40:38;99972.53;;;0.10;65.21
46045;BME280;31781;54.094;13.428;2024-01-15T21:46:41;99968.19;;;0.09;64.69
46045;BME280;31781;54.094;13.428;2024-01-15T21:52:43;99985.06;;;0.10;65.02
46045;BME280;31781;54.094;13.428;2024-01-15T21:58:45;99983.25;;;0.10;64.97
46045;BME280;31781;54.094;13.428;2024-01-15T22:04:48;99982.91;;;0.13;64.86
46045;BME280;31781;54.094;13.428;2024-01-15T22:10:49;99991.94;;;0.12;64.20
46045;BME280;31781;54.094;13.428;2024-01-15T22:16:51;99993.75;;;0.12;64.95
46045;BME280;31781;54.094;13.428;2024-01-15T22:22:54;100003.47;;;0.13;64.77
46045;BME280;31781;54.094;13.428;2024-01-15T22:28:56;100013.31;;;0.12;64.59
46045;BME280;31781;54.094;13.428;2024-01-15T22:34:57;100019.66;;;0.11;64.74
46045;BME280;31781;54.094;13.428;2024-01-15T22:41:01;100035.88;;;0.10;64.81
46045;BME280;31781;54.094;13.428;2024-01-15T22:47:02;100035.03;;;0.09;65.05
46045;BME280;31781;54.094;13.428;2024-01-15T22:53:04;100047.56;;;0.09;64.31
46045;BME280;31781;54.094;13.428;2024-01-15T22:59:07;100059.13;;;0.09;64.98
46045;BME280;31781;54.094;13.428;2024-01-15T23:05:09;100071.66;;;0.09;64.67
46045;BME280;31781;54.094;13.428;2024-01-15T23:11:11;100085.00;;;0.09;65.41
46045;BME280;31781;54.094;13.428;2024-01-15T23:17:14;100081.50;;;0.08;65.27
46045;BME280;31781;54.094;13.428;2024-01-15T23:23:15;100068.13;;;0.08;65.07
46045;BME280;31781;54.094;13.428;2024-01-15T23:29:17;100081.69;;;0.07;64.94
46045;BME280;31781;54.094;13.428;2024-01-15T23:35:20;100088.84;;;0.06;65.22
46045;BME280;31781;54.094;13.428;2024-01-15T23:41:22;100100.41;;;0.07;65.55
46045;BME280;31781;54.094;13.428;2024-01-15T23:47:23;100114.75;;;0.06;65.33
46045;BME280;31781;54.094;13.428;2024-01-15T23:53:26;100115.44;;;0.08;66.28
46045;BME280;31781;54.094;13.428;2024-01-15T23:59:28;100117.28;;;0.07;65.73
